Jesuania, Brazil
Current Conditions -  °F | °C
As of 8:00 AM on Tuesday 21 Oct 2014 (Local Time) from SBGW Reporting Station
Broken Clouds Broken Clouds  
Wind Chill: 68°   Ceiling: 2500
Heat Index: 68°   Visibility: 5mi
Dew Point: 61°   Wind: 1mph
Humidity: 78%   Direction: 200°SSW
Pressure: 30.12"   Gusts: NA
Location:  22°S, 45.29°W
Report Text: SBGW 211000Z 20001KT 8000 FEW013 BKN025 20/16 Q1020
Loading
Personal Weather Stations






























Interactive Weather Map
Tropical Storm Tracking
New forecast layout! Learn more

10-Day Weather Forecast

Advertisements
Track Severe Weather on mobile